Rechercher aéroport 
image banner adimage banner adimage banner ad
image banner ad

0CA6 - Emory Ranch

Situé à Ocotillo, United States

ICAO - 0CA6, IATA -

Données fournies par Airmate  

Information générale

Coordonnées: N32°44'58" W116°0'58"
Élévation : 480 feet MSL.
Variation magnétique : 13° East
Voir autres Aéroports à California

Données opérationnelles

Special qualification required
Heure actuelle UTC:
Heure actuelle locale:
Météo à : KNJK - El Centro Naf ( 34 km )
METAR: KNJK 231456Z 26003KT 10SM CLR 27/14 A2983 RMK AO2 SLP117 T02670144 53007 $
TAF: TAF KNJK 2315/2415 VRB06KT 9999 SKC QNH2981INS FM231830 12008KT 9999 FEW070 SCT120 SCT250 QNH2972INS TEMPO 2322/2401 VRB15G25KT VCSH FEW070 SCT120CB BKN200 FM240100 VRB06KT 9999 FEW070 SCT120 SCT200 QNH2972INS FM240600 25007KT 9999 FEW070 FEW120 QNH2977INS T38/2323Z T23/2413Z FS30130
Voir NOTAMs / SUP AIP / TFR affectant cet aéroport [VIEW]
Fréquences de communication: [VIEW]

Pistes:

Identifiant RWYQFULongueur (ft)Largeur (ft)SurfaceLDA (ft)
04240040ASPH
22240040ASPH

Coordonnées de l'aéroport

Adresse: Ocotillo United States

Vue satellite de 0CA6